createdAt,value
2022-08-11T00:00:17.864Z,21.40
2022-08-11T00:02:52.860Z,21.40
2022-08-11T00:05:23.958Z,21.40
2022-08-11T00:07:57.510Z,21.40
2022-08-11T00:10:30.089Z,21.40
2022-08-11T00:13:04.936Z,21.40
2022-08-11T00:15:43.713Z,21.40
2022-08-11T00:18:15.579Z,21.50
2022-08-11T00:20:47.227Z,21.40
2022-08-11T00:23:20.188Z,21.50
2022-08-11T00:25:54.971Z,21.70
2022-08-11T00:28:34.670Z,21.70
2022-08-11T00:31:12.669Z,21.80
2022-08-11T00:33:45.414Z,21.90
2022-08-11T00:36:23.385Z,22.00
2022-08-11T00:39:05.523Z,21.90
2022-08-11T00:42:06.964Z,21.60
2022-08-11T00:45:25.136Z,21.40
2022-08-11T00:48:44.316Z,21.20
2022-08-11T00:52:02.174Z,21.10
2022-08-11T00:54:58.733Z,21.20
2022-08-11T00:58:07.146Z,21.00
2022-08-11T01:00:59.449Z,21.00
2022-08-11T01:03:53.479Z,20.90
2022-08-11T01:07:10.567Z,20.80
2022-08-11T01:10:17.896Z,20.60
2022-08-11T01:13:22.649Z,20.70
2022-08-11T01:16:05.354Z,21.00
2022-08-11T01:19:16.280Z,20.70
2022-08-11T01:22:29.490Z,20.70
2022-08-11T01:25:31.307Z,20.70
2022-08-11T01:29:06.019Z,20.70
2022-08-11T01:32:04.436Z,20.80
2022-08-11T01:35:06.838Z,20.50
2022-08-11T01:38:15.050Z,20.30
2022-08-11T01:41:49.167Z,20.00
2022-08-11T01:44:41.679Z,19.70
2022-08-11T01:47:54.185Z,19.90
2022-08-11T01:50:40.638Z,19.70
2022-08-11T01:53:46.283Z,19.60
2022-08-11T01:57:06.735Z,19.60
2022-08-11T01:59:49.365Z,19.50
2022-08-11T02:02:54.078Z,19.20
2022-08-11T02:05:48.181Z,19.20
2022-08-11T02:08:49.584Z,19.10
2022-08-11T02:11:35.787Z,19.00
2022-08-11T02:14:34.830Z,19.00
2022-08-11T02:17:49.312Z,19.10
2022-08-11T02:21:02.625Z,19.20
2022-08-11T02:24:04.797Z,19.10
2022-08-11T02:26:47.140Z,19.00
2022-08-11T02:29:45.897Z,19.10
2022-08-11T02:32:48.671Z,19.10
2022-08-11T02:35:45.820Z,19.00
2022-08-11T02:38:37.693Z,18.90
2022-08-11T02:41:54.628Z,18.90
2022-08-11T02:44:55.907Z,18.80
2022-08-11T02:48:13.708Z,18.70
2022-08-11T02:51:22.355Z,18.70
2022-08-11T02:54:08.568Z,18.70
2022-08-11T02:56:47.352Z,18.60
2022-08-11T02:59:50.536Z,18.60
2022-08-11T03:02:31.739Z,18.70
2022-08-11T03:05:17.056Z,18.60
2022-08-11T03:08:31.630Z,18.50
2022-08-11T03:11:45.167Z,18.40
2022-08-11T03:15:00.596Z,18.40
2022-08-11T03:17:41.219Z,18.60
2022-08-11T03:20:38.142Z,18.50
2022-08-11T03:23:35.647Z,18.40
2022-08-11T03:26:32.713Z,18.10
2022-08-11T03:29:27.364Z,18.00
2022-08-11T03:32:30.898Z,17.90
2022-08-11T03:35:04.219Z,17.90
2022-08-11T03:37:56.780Z,18.00
2022-08-11T03:40:57.672Z,18.10
2022-08-11T03:43:58.355Z,18.10
2022-08-11T03:47:05.364Z,18.00
2022-08-11T03:50:13.549Z,17.90
2022-08-11T03:54:08.873Z,17.70
2022-08-11T03:57:15.763Z,17.50
2022-08-11T04:00:14.871Z,17.60
2022-08-11T04:03:20.680Z,17.60
2022-08-11T04:06:32.138Z,17.80
2022-08-11T04:09:40.046Z,17.80
2022-08-11T04:12:35.639Z,17.70
2022-08-11T04:16:12.469Z,17.60
2022-08-11T04:19:38.399Z,17.50
2022-08-11T04:22:21.650Z,17.50
2022-08-11T04:25:29.489Z,17.50
2022-08-11T04:28:50.852Z,17.50
2022-08-11T04:31:49.607Z,17.40
2022-08-11T04:34:36.562Z,17.30
2022-08-11T04:37:29.824Z,17.20
2022-08-11T04:40:29.178Z,17.20
2022-08-11T04:43:37.516Z,17.20
2022-08-11T04:46:56.503Z,17.20
2022-08-11T04:50:25.204Z,17.10
2022-08-11T04:53:53.508Z,17.10
2022-08-11T04:56:44.813Z,17.20
2022-08-11T05:00:06.224Z,17.20
2022-08-11T05:03:04.528Z,17.20
2022-08-11T05:06:06.656Z,17.30
2022-08-11T05:09:29.488Z,17.40
2022-08-11T05:12:12.159Z,17.40
2022-08-11T05:15:10.590Z,17.40
2022-08-11T05:18:05.357Z,17.60
2022-08-11T05:21:14.724Z,17.70
2022-08-11T05:24:31.434Z,17.70
2022-08-11T05:27:24.662Z,17.90
2022-08-11T05:30:26.491Z,18.10
2022-08-11T05:33:43.094Z,18.10
2022-08-11T05:36:46.083Z,18.20
2022-08-11T05:40:12.359Z,18.20
2022-08-11T05:43:11.307Z,18.30
2022-08-11T05:46:05.399Z,18.40
2022-08-11T05:48:56.672Z,18.50
2022-08-11T05:51:57.086Z,18.60
2022-08-11T05:54:48.656Z,18.90
2022-08-11T05:57:39.685Z,18.90
2022-08-11T06:00:15.090Z,18.90
2022-08-11T06:02:55.371Z,19.00
2022-08-11T06:05:38.389Z,19.10
2022-08-11T06:08:15.234Z,19.30
2022-08-11T06:10:47.106Z,19.50
2022-08-11T06:13:18.944Z,19.40
2022-08-11T06:15:55.923Z,19.60
2022-08-11T06:18:28.196Z,19.60
2022-08-11T06:21:00.625Z,19.80
2022-08-11T06:23:33.677Z,19.70
2022-08-11T06:26:15.039Z,19.90
2022-08-11T06:28:47.404Z,19.90
2022-08-11T06:31:25.210Z,20.00
2022-08-11T06:34:12.393Z,20.10
2022-08-11T06:37:19.302Z,20.10
2022-08-11T06:40:10.736Z,20.20
2022-08-11T06:43:06.502Z,20.30
2022-08-11T06:46:03.355Z,20.40
2022-08-11T06:48:35.338Z,20.60
2022-08-11T06:51:12.973Z,20.80
2022-08-11T06:54:03.626Z,20.90
2022-08-11T06:57:29.417Z,21.00
2022-08-11T07:00:07.345Z,21.10
2022-08-11T07:02:49.600Z,21.30
2022-08-11T07:05:46.732Z,21.40
2022-08-11T07:08:52.726Z,21.50
2022-08-11T07:12:35.543Z,21.60
2022-08-11T07:16:12.619Z,21.80
2022-08-11T07:18:48.425Z,21.90
2022-08-11T07:22:02.845Z,22.10
2022-08-11T07:25:27.310Z,22.30
2022-08-11T07:28:30.425Z,22.20
2022-08-11T07:31:08.360Z,22.30
2022-08-11T07:34:07.070Z,22.40
2022-08-11T07:36:51.277Z,22.50
2022-08-11T07:39:29.390Z,22.70
2022-08-11T07:42:07.667Z,22.80
2022-08-11T07:45:01.028Z,23.00
2022-08-11T07:47:51.893Z,23.00
2022-08-11T07:50:42.308Z,23.20
2022-08-11T07:53:14.728Z,23.20
2022-08-11T07:55:53.422Z,23.30
2022-08-11T07:58:53.345Z,23.50
2022-08-11T08:01:45.606Z,23.50
2022-08-11T08:04:37.567Z,23.60
2022-08-11T08:07:27.853Z,23.80
2022-08-11T08:10:20.087Z,23.90
2022-08-11T08:13:10.132Z,24.00
2022-08-11T08:16:00.453Z,24.10
2022-08-11T08:18:35.941Z,24.10
2022-08-11T08:21:13.127Z,24.20
2022-08-11T08:23:53.824Z,24.20
2022-08-11T08:26:51.448Z,24.30
2022-08-11T08:29:41.893Z,24.40
2022-08-11T08:32:13.443Z,24.60
2022-08-11T08:34:45.835Z,24.70
2022-08-11T08:37:45.301Z,24.70
2022-08-11T08:40:13.824Z,24.80
2022-08-11T08:42:51.725Z,24.90
2022-08-11T08:45:24.483Z,25.00
2022-08-11T08:48:01.772Z,25.00
2022-08-11T08:50:56.246Z,25.10
2022-08-11T08:53:33.281Z,25.20
2022-08-11T08:56:06.091Z,25.30
2022-08-11T08:58:39.013Z,25.40
2022-08-11T09:01:11.474Z,25.50
2022-08-11T09:04:05.267Z,25.60
2022-08-11T09:06:39.871Z,25.60
2022-08-11T09:09:12.346Z,25.80
2022-08-11T09:11:51.146Z,25.80
2022-08-11T09:14:47.091Z,25.90
2022-08-11T09:17:23.654Z,26.00
2022-08-11T09:20:26.573Z,26.10
2022-08-11T09:26:30.309Z,26.20
2022-08-11T09:29:04.620Z,26.30
2022-08-11T09:31:40.090Z,26.30
2022-08-11T09:34:14.125Z,26.30
2022-08-11T09:37:04.547Z,26.30
2022-08-11T09:39:57.594Z,26.30
2022-08-11T09:42:49.094Z,26.40
2022-08-11T09:45:20.411Z,26.50
2022-08-11T09:47:51.667Z,26.50
2022-08-11T09:50:22.976Z,26.60
2022-08-11T09:53:34.675Z,26.70
2022-08-11T09:55:47.149Z,26.80
2022-08-11T09:58:41.807Z,26.80
2022-08-11T10:01:27.299Z,27.00
2022-08-11T10:04:15.403Z,27.00
2022-08-11T10:07:05.542Z,27.10
2022-08-11T10:09:50.906Z,27.10
2022-08-11T10:12:33.189Z,27.20
2022-08-11T10:15:28.631Z,27.40
2022-08-11T10:18:26.470Z,27.40
2022-08-11T10:21:07.297Z,27.30
2022-08-11T10:24:00.887Z,27.40
2022-08-11T10:26:53.641Z,27.40
2022-08-11T10:29:51.161Z,27.40
2022-08-11T10:32:57.619Z,27.40
2022-08-11T10:35:32.640Z,27.50
2022-08-11T10:38:08.622Z,27.60
2022-08-11T10:40:45.732Z,27.60
2022-08-11T10:43:18.804Z,27.70
2022-08-11T10:46:30.714Z,27.90
2022-08-11T10:49:02.481Z,27.90
2022-08-11T10:51:53.878Z,28.00
2022-08-11T10:54:47.316Z,28.00
2022-08-11T10:57:37.201Z,28.10
2022-08-11T11:00:15.135Z,28.10
2022-08-11T11:03:07.178Z,28.10
2022-08-11T11:06:12.919Z,28.20
2022-08-11T11:08:57.554Z,28.20
2022-08-11T11:12:07.035Z,28.30
2022-08-11T11:15:03.252Z,28.50
2022-08-11T11:18:01.833Z,28.80
2022-08-11T11:20:58.050Z,29.60
2022-08-11T11:24:14.868Z,30.40
2022-08-11T11:27:25.469Z,32.50
2022-08-11T11:30:10.245Z,32.80
2022-08-11T11:33:13.635Z,32.80
2022-08-11T11:36:32.882Z,32.60
2022-08-11T11:39:04.155Z,33.50
2022-08-11T11:41:36.567Z,33.80
2022-08-11T11:44:11.171Z,33.40
2022-08-11T11:46:49.448Z,33.40
2022-08-11T11:49:27.275Z,32.80
2022-08-11T11:52:01.832Z,32.70
2022-08-11T11:54:34.179Z,32.70
2022-08-11T11:57:24.399Z,32.70
2022-08-11T12:00:18.505Z,32.60
2022-08-11T12:02:50.591Z,32.50
2022-08-11T12:05:22.372Z,32.20
2022-08-11T12:08:14.712Z,32.10
2022-08-11T12:11:13.506Z,32.20
2022-08-11T12:13:53.037Z,32.50
2022-08-11T12:16:34.444Z,32.50
2022-08-11T12:19:21.542Z,32.40
2022-08-11T12:22:14.501Z,32.40
2022-08-11T12:25:04.925Z,32.40
2022-08-11T12:27:36.504Z,32.70
2022-08-11T12:30:11.172Z,32.70
2022-08-11T12:32:44.013Z,32.50
2022-08-11T12:35:16.275Z,32.90
2022-08-11T12:37:54.257Z,32.70
2022-08-11T12:41:15.685Z,32.70
2022-08-11T12:44:02.093Z,32.70
2022-08-11T12:46:37.948Z,32.30
2022-08-11T12:49:43.228Z,32.30
2022-08-11T12:52:24.923Z,32.70
2022-08-11T12:55:12.956Z,32.80
2022-08-11T12:58:06.957Z,32.70
2022-08-11T13:00:59.898Z,32.70
2022-08-11T13:03:52.577Z,32.50
2022-08-11T13:06:28.539Z,32.60
2022-08-11T13:09:01.537Z,32.90
2022-08-11T13:11:56.800Z,33.50
2022-08-11T13:14:28.710Z,33.90
2022-08-11T13:17:19.525Z,34.00
2022-08-11T13:19:51.951Z,33.50
2022-08-11T13:22:25.458Z,33.00
2022-08-11T13:24:58.135Z,33.00
2022-08-11T13:27:29.169Z,33.10
2022-08-11T13:30:19.536Z,33.50
2022-08-11T13:32:53.708Z,33.60
2022-08-11T13:35:25.252Z,33.30
2022-08-11T13:38:19.007Z,33.30
2022-08-11T13:40:55.649Z,33.40
2022-08-11T13:43:30.693Z,33.50
2022-08-11T13:46:20.200Z,33.30
2022-08-11T13:49:00.648Z,33.20
2022-08-11T13:51:35.870Z,33.50
2022-08-11T13:54:22.184Z,33.60
2022-08-11T13:56:57.387Z,33.50
2022-08-11T13:59:31.205Z,33.60
2022-08-11T14:02:21.825Z,33.50
2022-08-11T14:05:12.545Z,33.40
2022-08-11T14:07:59.653Z,33.50
2022-08-11T14:10:34.282Z,33.80
2022-08-11T14:13:42.312Z,33.90
2022-08-11T14:16:57.915Z,34.00
2022-08-11T14:19:30.980Z,34.30
2022-08-11T14:22:09.286Z,34.40
2022-08-11T14:24:43.844Z,34.30
2022-08-11T14:28:41.757Z,34.20
2022-08-11T14:30:27.866Z,34.00
2022-08-11T14:32:59.871Z,34.40
2022-08-11T14:35:30.974Z,34.30
2022-08-11T14:38:05.426Z,34.50
2022-08-11T14:40:55.618Z,34.50
2022-08-11T14:44:12.319Z,34.60
2022-08-11T14:46:57.139Z,34.70
2022-08-11T14:49:29.572Z,34.90
2022-08-11T14:52:01.650Z,34.80
2022-08-11T14:54:52.042Z,34.60
2022-08-11T14:57:56.289Z,34.10
2022-08-11T15:00:18.195Z,33.90
2022-08-11T15:03:08.569Z,34.40
2022-08-11T15:05:58.364Z,34.80
2022-08-11T15:08:52.680Z,34.90
2022-08-11T15:11:47.684Z,34.60
2022-08-11T15:14:39.903Z,34.40
2022-08-11T15:17:13.094Z,34.60
2022-08-11T15:20:05.361Z,34.70
2022-08-11T15:22:54.728Z,34.40
2022-08-11T15:25:26.846Z,34.60
2022-08-11T15:28:18.207Z,34.90
2022-08-11T15:31:13.715Z,35.10
2022-08-11T15:34:07.851Z,35.20
2022-08-11T15:36:59.391Z,35.30
2022-08-11T15:40:06.227Z,35.30
2022-08-11T15:43:08.420Z,35.10
2022-08-11T15:45:52.355Z,34.70
2022-08-11T15:48:32.094Z,34.60
2022-08-11T15:51:33.477Z,34.60
2022-08-11T15:54:11.515Z,34.50
2022-08-11T15:56:46.701Z,34.70
2022-08-11T15:59:41.995Z,35.00
2022-08-11T16:02:17.929Z,35.00
2022-08-11T16:04:49.747Z,34.80
2022-08-11T16:07:27.024Z,34.70
2022-08-11T16:10:18.764Z,34.60
2022-08-11T16:13:07.070Z,34.40
2022-08-11T16:16:03.584Z,34.10
2022-08-11T16:18:59.561Z,34.10
2022-08-11T16:21:36.580Z,34.40
2022-08-11T16:27:01.418Z,34.50
2022-08-11T16:27:13.560Z,34.40
2022-08-11T16:29:48.171Z,34.40
2022-08-11T16:32:25.805Z,34.40
2022-08-11T16:35:22.383Z,34.60
2022-08-11T16:38:14.167Z,34.60
2022-08-11T16:40:47.164Z,34.30
2022-08-11T16:43:40.731Z,34.60
2022-08-11T16:46:37.588Z,34.50
2022-08-11T16:49:18.517Z,34.40
2022-08-11T16:51:49.473Z,34.30
2022-08-11T16:54:20.827Z,34.10
2022-08-11T16:56:54.262Z,34.00
2022-08-11T16:59:36.647Z,33.80
2022-08-11T17:02:13.006Z,34.00
2022-08-11T17:05:28.683Z,34.10
2022-08-11T17:08:22.797Z,34.10
2022-08-11T17:11:20.768Z,34.00
2022-08-11T17:14:00.607Z,34.10
2022-08-11T17:16:41.809Z,34.00
2022-08-11T17:20:40.316Z,33.90
2022-08-11T17:22:45.074Z,34.10
2022-08-11T17:25:17.306Z,34.00
2022-08-11T17:27:50.881Z,34.10
2022-08-11T17:30:44.632Z,34.10
2022-08-11T17:33:35.158Z,34.00
2022-08-11T17:36:07.324Z,33.80
2022-08-11T17:38:40.038Z,33.70
2022-08-11T17:41:31.265Z,33.50
2022-08-11T17:44:22.649Z,33.60
2022-08-11T17:47:13.582Z,33.30
2022-08-11T17:49:45.234Z,33.10
2022-08-11T17:52:35.738Z,32.70
2022-08-11T17:55:51.572Z,32.40
2022-08-11T17:58:38.067Z,32.10
2022-08-11T18:01:11.514Z,31.80
2022-08-11T18:03:57.577Z,31.40
2022-08-11T18:06:34.843Z,31.30
2022-08-11T18:09:34.127Z,31.10
2022-08-11T18:12:26.046Z,30.80
2022-08-11T18:15:16.447Z,30.60
2022-08-11T18:18:06.382Z,30.40
2022-08-11T18:20:55.991Z,30.20
2022-08-11T18:23:47.260Z,30.00
2022-08-11T18:26:40.255Z,29.90
2022-08-11T18:29:31.065Z,29.90
2022-08-11T18:32:49.207Z,29.70
2022-08-11T18:35:41.136Z,29.40
2022-08-11T18:38:34.758Z,29.30
2022-08-11T18:41:27.260Z,29.20
2022-08-11T18:44:22.732Z,29.00
2022-08-11T18:47:14.261Z,28.80
2022-08-11T18:50:05.852Z,28.60
2022-08-11T18:52:56.636Z,28.40
2022-08-11T18:55:47.898Z,28.30
2022-08-11T18:58:46.361Z,28.10
2022-08-11T19:01:37.864Z,27.90
2022-08-11T19:04:30.024Z,27.80
2022-08-11T19:07:22.060Z,27.50
2022-08-11T19:10:14.574Z,27.40
2022-08-11T19:13:06.598Z,27.20
2022-08-11T19:15:57.699Z,27.10
2022-08-11T19:18:49.033Z,26.90
2022-08-11T19:21:40.000Z,26.70
2022-08-11T19:24:30.322Z,26.50
2022-08-11T19:27:21.691Z,26.40
2022-08-11T19:30:14.296Z,26.40
2022-08-11T19:33:04.289Z,26.30
2022-08-11T19:35:55.194Z,26.20
2022-08-11T19:38:45.165Z,26.00
2022-08-11T19:41:56.468Z,26.00
2022-08-11T19:44:47.799Z,25.80
2022-08-11T19:47:39.119Z,25.60
2022-08-11T19:50:29.010Z,25.50
2022-08-11T19:53:20.771Z,25.40
2022-08-11T19:56:11.898Z,25.30
2022-08-11T19:59:03.169Z,25.10
2022-08-11T20:02:01.215Z,24.90
2022-08-11T20:05:02.407Z,24.90
2022-08-11T20:07:52.786Z,24.90
2022-08-11T20:10:44.199Z,24.90
2022-08-11T20:13:35.815Z,24.80
2022-08-11T20:16:35.253Z,24.80
2022-08-11T20:19:56.495Z,24.60
2022-08-11T20:22:37.559Z,24.40
2022-08-11T20:25:28.507Z,24.40
2022-08-11T20:28:17.813Z,24.20
2022-08-11T20:31:08.284Z,24.20
2022-08-11T20:33:59.626Z,24.10
2022-08-11T20:36:54.115Z,24.00
2022-08-11T20:39:45.140Z,23.90
2022-08-11T20:42:37.127Z,23.90
2022-08-11T20:45:28.977Z,23.90
2022-08-11T20:48:21.067Z,23.90
2022-08-11T20:51:17.355Z,23.90
2022-08-11T20:54:07.975Z,23.90
2022-08-11T20:57:02.061Z,23.90
2022-08-11T21:03:04.749Z,23.70
2022-08-11T21:06:09.709Z,23.70
2022-08-11T21:09:01.850Z,23.50
2022-08-11T21:11:55.379Z,23.50
2022-08-11T21:14:45.179Z,23.50
2022-08-11T21:18:00.038Z,23.50
2022-08-11T21:20:51.628Z,23.40
2022-08-11T21:23:44.651Z,23.40
2022-08-11T21:26:41.235Z,23.30
2022-08-11T21:29:31.740Z,23.20
2022-08-11T21:32:21.479Z,23.20
2022-08-11T21:35:12.587Z,23.10
2022-08-11T21:38:03.851Z,23.10
2022-08-11T21:41:00.166Z,23.00
2022-08-11T21:43:51.690Z,22.90
2022-08-11T21:46:42.433Z,22.90
2022-08-11T21:49:33.921Z,22.90
2022-08-11T21:52:24.738Z,22.80
2022-08-11T21:55:15.467Z,22.70
2022-08-11T21:58:06.034Z,22.70
2022-08-11T22:00:56.298Z,22.70
2022-08-11T22:03:49.672Z,22.80
2022-08-11T22:06:40.981Z,23.10
2022-08-11T22:09:31.323Z,23.50
2022-08-11T22:12:34.375Z,23.60
2022-08-11T22:15:27.254Z,23.50
2022-08-11T22:18:19.114Z,23.40
2022-08-11T22:21:09.183Z,23.20
2022-08-11T22:24:05.359Z,23.10
2022-08-11T22:26:57.848Z,23.10
2022-08-11T22:29:51.155Z,23.00
2022-08-11T22:32:41.578Z,22.90
2022-08-11T22:35:31.586Z,22.90
2022-08-11T22:38:22.137Z,22.80
2022-08-11T22:41:12.132Z,22.70
2022-08-11T22:44:01.607Z,22.60
2022-08-11T22:46:53.136Z,22.60
2022-08-11T22:49:57.672Z,22.40
2022-08-11T22:52:49.347Z,22.60
2022-08-11T22:55:42.686Z,23.10
2022-08-11T22:58:34.181Z,23.10
2022-08-11T23:01:24.615Z,22.90
2022-08-11T23:04:15.052Z,22.50
2022-08-11T23:07:06.216Z,22.40
2022-08-11T23:09:57.456Z,22.20
2022-08-11T23:12:47.574Z,22.10
2022-08-11T23:15:39.230Z,21.90
2022-08-11T23:18:32.048Z,21.90
2022-08-11T23:21:22.214Z,21.80
2022-08-11T23:24:12.419Z,21.60
2022-08-11T23:27:02.811Z,21.50
2022-08-11T23:29:54.152Z,21.50
2022-08-11T23:32:46.267Z,21.40
2022-08-11T23:35:51.945Z,21.40
2022-08-11T23:38:46.091Z,21.30
2022-08-11T23:41:36.427Z,21.40
2022-08-11T23:44:27.828Z,21.20
2022-08-11T23:47:22.608Z,21.20
2022-08-11T23:50:12.886Z,21.00
2022-08-11T23:53:07.640Z,21.10
2022-08-11T23:55:57.263Z,21.00
2022-08-11T23:58:47.639Z,21.00
